Moundville, Alabama
Current Conditions -  °F | °C
As of 11:53 AM on Thursday 27 Nov 2014 (Local Time) from KTCL Reporting Station
Overcast Overcast  
Wind Chill: 42°   Ceiling: 3700
Heat Index: 47°   Visibility: 10mi
Dew Point: 30°   Wind: 12mph
Humidity: 52%   Direction: 340°NNW
Pressure: 30.43"   Gusts: NA
Location:  33°N, 87.63°W
Report Text: KTCL 271753Z 34010KT 10SM OVC037 08/M01 A3043 RMK AO2 SLP305 T00831011 10094 20022 50002
Loading
Personal Weather Stations






























Interactive Weather Map New forecast layout! Learn more

10-Day Weather Forecast

Advertisements
Track Severe Weather on mobile